createdAt,value
2022-11-28T00:45:39.730Z,101293.22
2022-11-28T06:02:18.751Z,101056.78
2022-11-28T06:04:46.343Z,101062.84
2022-11-28T06:07:15.906Z,101048.84
2022-11-28T06:09:45.733Z,101045.38
2022-11-28T06:12:17.231Z,101046.34
2022-11-28T06:56:53.931Z,101021.78
2022-11-28T07:12:42.797Z,101018.41
2022-11-28T07:23:44.039Z,101021.03
2022-11-28T07:39:29.912Z,101023.75
2022-11-28T07:50:28.703Z,101009.22
2022-11-28T08:05:43.307Z,101014.97
2022-11-28T08:08:10.685Z,101018.41
2022-11-28T08:10:38.135Z,101021.91
2022-11-28T08:35:25.188Z,100991.19
2022-11-28T08:37:52.525Z,100982.41
2022-11-28T08:40:19.850Z,100986.66
2022-11-28T08:42:47.216Z,100982.19
2022-11-28T08:45:16.284Z,100989.91
2022-11-28T08:47:44.008Z,100988.25
2022-11-28T08:54:29.733Z,100992.41
2022-11-28T08:56:58.980Z,100987.97
2022-11-28T08:59:30.227Z,100990.47
2022-11-28T09:01:58.639Z,100992.13
2022-11-28T09:04:26.210Z,101001.72
2022-11-28T09:06:53.926Z,100997.25
2022-11-28T09:09:21.922Z,101005.84
2022-11-28T09:11:49.365Z,100992.81
2022-11-28T09:14:17.058Z,100997.06
2022-11-28T09:16:44.546Z,101003.19
2022-11-28T09:19:12.177Z,101009.97
2022-11-28T09:21:40.719Z,101003.91
2022-11-28T09:24:08.907Z,100989.97
2022-11-28T09:26:36.751Z,100992.59
2022-11-28T09:29:04.249Z,100995.94
2022-11-28T09:31:31.684Z,101002.16
2022-11-28T09:33:59.232Z,100999.56
2022-11-28T09:36:28.506Z,101003.78
2022-11-28T09:38:55.997Z,100999.34
2022-11-28T09:41:42.229Z,100999.19
2022-11-28T09:44:22.314Z,100991.34
2022-11-28T09:46:55.853Z,100996.44
2022-11-28T09:49:45.717Z,100992.97
2022-11-28T09:52:35.346Z,100992.13
2022-11-28T09:55:35.806Z,100974.47
2022-11-28T09:58:36.672Z,100972.69
2022-11-28T10:01:26.795Z,100966.50
2022-11-28T10:04:09.474Z,100976.81
2022-11-28T10:06:45.439Z,100971.47
2022-11-28T10:09:39.949Z,100965.31
2022-11-28T10:12:34.290Z,100966.13
2022-11-28T10:15:04.700Z,100966.03
2022-11-28T10:17:54.751Z,100963.38
2022-11-28T10:20:24.370Z,100961.59
2022-11-28T10:23:03.080Z,100985.13
2022-11-28T10:25:43.390Z,100978.88
2022-11-28T10:28:16.056Z,100973.53
2022-11-28T10:30:48.156Z,100979.56
2022-11-28T10:33:27.462Z,100968.28
2022-11-28T10:36:02.627Z,100961.13
2022-11-28T10:38:34.182Z,100960.25
2022-11-28T10:41:37.075Z,100957.63
2022-11-28T10:44:23.500Z,100954.09
2022-11-28T10:47:01.877Z,100952.22
2022-11-28T10:49:47.752Z,100955.66
2022-11-28T10:52:21.686Z,100947.78
2022-11-28T10:55:20.134Z,100944.31
2022-11-28T10:58:09.332Z,100939.88
2022-11-28T11:00:37.523Z,100937.25
2022-11-28T11:03:06.016Z,100945.72
2022-11-28T11:05:35.579Z,100934.56
2022-11-28T11:08:08.916Z,100940.63
2022-11-28T11:10:49.301Z,100937.97
2022-11-28T11:13:21.421Z,100944.09
2022-11-28T11:15:51.908Z,100939.56
2022-11-28T11:18:27.982Z,100936.88
2022-11-28T11:21:18.378Z,100931.44
2022-11-28T11:23:46.485Z,100919.94
2022-11-28T11:26:24.020Z,100910.31
2022-11-28T11:28:52.376Z,100918.91
2022-11-28T11:31:28.419Z,100911.78
2022-11-28T11:34:03.405Z,100921.16
2022-11-28T11:36:36.332Z,100922.84
2022-11-28T11:39:06.984Z,100928.78
2022-11-28T11:41:34.799Z,100930.28
2022-11-28T11:44:14.617Z,100918.78
2022-11-28T11:46:51.419Z,100916.75
2022-11-28T11:49:49.042Z,100920.06
2022-11-28T11:52:26.768Z,100914.75
2022-11-28T11:54:57.256Z,100919.81
2022-11-28T11:57:37.445Z,100910.28
2022-11-28T12:00:07.359Z,100917.19
2022-11-28T12:02:45.286Z,100916.09
2022-11-28T12:05:21.985Z,100906.28
2022-11-28T12:08:00.263Z,100906.22
2022-11-28T12:10:31.230Z,100904.28
2022-11-28T12:12:58.608Z,100905.97
2022-11-28T12:15:47.716Z,100892.72
2022-11-28T12:18:53.844Z,100896.25
2022-11-28T12:21:39.968Z,100884.81
2022-11-28T12:24:12.438Z,100886.41
2022-11-28T12:26:45.134Z,100884.78
2022-11-28T12:29:12.599Z,100881.13
2022-11-28T12:31:55.442Z,100871.47
2022-11-28T12:34:41.394Z,100874.16
2022-11-28T12:38:12.178Z,100865.44
2022-11-28T12:41:01.425Z,100867.25
2022-11-28T12:43:28.845Z,100865.38
2022-11-28T12:46:05.289Z,100862.78
2022-11-28T12:48:58.616Z,100870.56
2022-11-28T12:51:34.267Z,100874.81
2022-11-28T12:54:01.526Z,100872.25
2022-11-28T12:56:54.645Z,100865.22
2022-11-28T12:59:27.585Z,100865.13
2022-11-28T13:02:18.004Z,100867.56
2022-11-28T13:05:10.670Z,100868.41
2022-11-28T13:08:15.291Z,100877.28
2022-11-28T13:10:50.693Z,100874.75
2022-11-28T13:13:41.316Z,100877.44
2022-11-28T13:16:26.671Z,100869.53
2022-11-28T13:19:00.531Z,100872.22
2022-11-28T13:21:37.071Z,100862.53
2022-11-28T13:24:26.056Z,100863.69
2022-11-28T13:27:32.524Z,100858.47
2022-11-28T13:30:20.367Z,100862.78
2022-11-28T13:33:00.015Z,100864.53
2022-11-28T13:35:28.654Z,100860.09
2022-11-28T13:38:47.178Z,100860.34
2022-11-28T13:41:43.867Z,100856.56
2022-11-28T13:44:28.677Z,100852.25
2022-11-28T13:46:56.797Z,100857.59
2022-11-28T13:49:26.496Z,100863.03
2022-11-28T13:52:18.849Z,100858.66
2022-11-28T13:54:55.625Z,100853.22
2022-11-28T13:57:39.284Z,100855.09
2022-11-28T14:00:25.254Z,100870.16
2022-11-28T14:02:55.052Z,100854.59
2022-11-28T14:05:34.949Z,100861.38
2022-11-28T14:08:04.201Z,100857.09
2022-11-28T14:10:38.220Z,100861.13
2022-11-28T14:13:28.147Z,100861.00
2022-11-28T14:16:01.260Z,100858.72
2022-11-28T14:19:10.339Z,100849.59
2022-11-28T14:21:40.977Z,100858.44
2022-11-28T14:24:27.141Z,100855.13
2022-11-28T14:26:58.564Z,100864.81
2022-11-28T14:29:35.310Z,100863.22
2022-11-28T14:34:50.947Z,100862.28
2022-11-28T14:37:21.490Z,100855.50
2022-11-28T14:39:49.928Z,100861.06
2022-11-28T14:42:44.157Z,100851.84
2022-11-28T14:54:44.362Z,100860.34
2022-11-28T15:09:49.986Z,100859.50
2022-11-28T15:30:04.918Z,100874.13
2022-11-28T15:46:26.880Z,100881.06
2022-11-28T15:57:43.859Z,100876.66
2022-11-28T16:00:15.841Z,100873.34
2022-11-28T16:02:44.339Z,100878.25
2022-11-28T16:05:16.150Z,100879.13
2022-11-28T16:07:44.525Z,100880.72
2022-11-28T16:10:25.132Z,100874.03
2022-11-28T16:13:01.217Z,100881.72
2022-11-28T16:37:34.928Z,100881.88
2022-11-28T16:48:38.749Z,100882.41
2022-11-28T16:51:11.652Z,100876.25
2022-11-28T17:10:46.281Z,100897.06
2022-11-28T17:17:39.006Z,100892.09
2022-11-28T17:20:07.057Z,100886.91
2022-11-28T17:22:59.978Z,100892.03
2022-11-28T17:25:27.446Z,100886.78
2022-11-28T17:27:54.934Z,100886.78
2022-11-28T17:30:22.488Z,100888.66
2022-11-28T17:37:40.885Z,100883.53
2022-11-28T20:41:54.894Z,100891.84
2022-11-28T23:04:06.507Z,100905.13
2022-11-28T23:15:52.889Z,100892.22
2022-11-28T23:22:51.635Z,100900.16
2022-11-28T23:30:10.316Z,100895.81
